createdAt,value
2019-04-14T00:00:01.147Z,8.00
2019-04-14T00:02:31.707Z,8.07
2019-04-14T00:05:00.305Z,7.37
2019-04-14T00:07:27.678Z,9.00
2019-04-14T00:09:56.271Z,8.47
2019-04-14T00:12:23.417Z,8.90
2019-04-14T00:14:51.214Z,8.40
2019-04-14T00:17:19.222Z,8.60
2019-04-14T00:19:46.199Z,8.40
2019-04-14T00:22:14.081Z,8.50
2019-04-14T00:24:40.936Z,8.13
2019-04-14T00:27:08.540Z,8.30
2019-04-14T00:29:37.051Z,6.90
2019-04-14T00:32:05.200Z,8.33
2019-04-14T00:34:35.332Z,7.73
2019-04-14T00:37:05.497Z,7.80
2019-04-14T00:39:34.325Z,6.97
2019-04-14T00:42:04.988Z,7.27
2019-04-14T00:44:34.018Z,7.03
2019-04-14T00:47:03.041Z,6.40
2019-04-14T00:49:29.768Z,7.17
2019-04-14T00:51:57.785Z,6.90
2019-04-14T00:54:26.007Z,6.00
2019-04-14T00:56:54.082Z,6.00
2019-04-14T00:59:20.835Z,6.57
2019-04-14T01:01:48.409Z,6.67
2019-04-14T01:04:16.557Z,6.30
2019-04-14T01:06:44.712Z,5.93
2019-04-14T01:09:13.522Z,6.40
2019-04-14T01:11:40.401Z,5.43
2019-04-14T01:14:08.007Z,5.77
2019-04-14T01:16:34.967Z,6.13
2019-04-14T01:19:02.562Z,6.17
2019-04-14T01:21:30.615Z,6.27
2019-04-14T01:23:58.816Z,5.83
2019-04-14T01:26:26.682Z,6.70
2019-04-14T01:28:54.791Z,6.57
2019-04-14T01:31:23.074Z,6.43
2019-04-14T01:33:49.722Z,6.10
2019-04-14T01:36:17.030Z,6.07
2019-04-14T01:38:44.892Z,5.63
2019-04-14T01:41:12.833Z,6.07
2019-04-14T01:43:40.580Z,5.40
2019-04-14T01:46:14.858Z,5.77
2019-04-14T01:48:36.712Z,5.97
2019-04-14T01:51:05.501Z,5.83
2019-04-14T01:53:34.211Z,6.43
2019-04-14T01:56:03.497Z,5.83
2019-04-14T01:58:32.153Z,5.17
2019-04-14T02:01:01.845Z,5.53
2019-04-14T02:03:30.157Z,6.03
2019-04-14T02:05:58.190Z,5.27
2019-04-14T02:08:26.248Z,5.60
2019-04-14T02:10:52.940Z,5.77
2019-04-14T02:13:20.353Z,5.63
2019-04-14T02:15:48.425Z,5.50
2019-04-14T02:18:16.405Z,5.30
2019-04-14T02:20:44.607Z,5.43
2019-04-14T02:23:12.549Z,5.53
2019-04-14T02:25:40.429Z,5.37
2019-04-14T02:28:07.581Z,5.37
2019-04-14T02:30:41.707Z,5.30
2019-04-14T02:33:31.906Z,5.47
2019-04-14T02:38:34.476Z,5.73
2019-04-14T02:41:04.234Z,5.00
2019-04-14T02:43:29.564Z,5.27
2019-04-14T02:46:05.845Z,5.70
2019-04-14T02:50:48.208Z,5.40
2019-04-14T02:53:29.190Z,5.73
2019-04-14T02:55:49.150Z,5.57
2019-04-14T02:58:20.270Z,5.50
2019-04-14T03:03:16.926Z,5.67
2019-04-14T03:05:47.780Z,5.50
2019-04-14T03:08:07.525Z,5.40
2019-04-14T03:11:44.352Z,5.40
2019-04-14T03:16:47.249Z,5.40
2019-04-14T03:21:34.788Z,5.43
2019-04-14T03:24:15.892Z,4.57
2019-04-14T03:26:35.616Z,4.90
2019-04-14T03:29:05.380Z,5.00
2019-04-14T03:34:30.627Z,4.97
2019-04-14T03:37:22.006Z,5.13
2019-04-14T03:43:58.093Z,4.90
2019-04-14T03:46:34.472Z,4.77
2019-04-14T03:48:58.308Z,4.70
2019-04-14T03:51:28.326Z,4.47
2019-04-14T03:56:01.920Z,4.93
2019-04-14T03:58:23.212Z,4.70
2019-04-14T04:00:51.339Z,4.73
2019-04-14T04:03:19.515Z,5.00
2019-04-14T04:05:47.756Z,4.97
2019-04-14T04:08:15.711Z,4.43
2019-04-14T04:10:46.583Z,4.73
2019-04-14T04:13:13.306Z,5.03
2019-04-14T04:15:41.107Z,4.13
2019-04-14T04:18:09.791Z,3.97
2019-04-14T04:20:39.324Z,4.60
2019-04-14T04:23:07.950Z,4.67
2019-04-14T04:25:36.401Z,3.93
2019-04-14T04:28:06.036Z,4.10
2019-04-14T04:30:34.754Z,4.53
2019-04-14T04:33:04.392Z,4.93
2019-04-14T04:35:34.627Z,4.77
2019-04-14T04:38:03.427Z,4.27
2019-04-14T04:40:31.683Z,4.27
2019-04-14T04:42:59.091Z,4.53
2019-04-14T04:45:27.789Z,4.63
2019-04-14T04:47:55.539Z,4.67
2019-04-14T04:50:23.802Z,4.30
2019-04-14T04:52:51.782Z,4.33
2019-04-14T04:55:19.813Z,4.57
2019-04-14T04:57:46.747Z,4.87
2019-04-14T05:00:13.799Z,4.70
2019-04-14T05:02:41.700Z,4.57
2019-04-14T05:05:14.488Z,4.53
2019-04-14T05:07:41.142Z,4.47
2019-04-14T05:10:10.900Z,4.27
2019-04-14T05:12:39.838Z,4.13
2019-04-14T05:15:09.499Z,4.53
2019-04-14T05:17:38.877Z,4.57
2019-04-14T05:20:07.278Z,4.50
2019-04-14T05:22:35.318Z,3.40
2019-04-14T05:25:04.303Z,4.30
2019-04-14T05:27:31.934Z,3.20
2019-04-14T05:30:00.315Z,4.70
2019-04-14T05:32:28.404Z,4.23
2019-04-14T05:34:56.465Z,4.10
2019-04-14T05:37:24.664Z,4.00
2019-04-14T05:39:52.602Z,4.17
2019-04-14T05:42:24.058Z,4.10
2019-04-14T05:44:49.335Z,4.37
2019-04-14T05:47:17.567Z,4.17
2019-04-14T05:49:49.404Z,3.73
2019-04-14T05:52:14.074Z,4.40
2019-04-14T05:54:40.789Z,4.20
2019-04-14T05:57:07.409Z,3.67
2019-04-14T05:59:35.326Z,4.40
2019-04-14T06:02:02.591Z,4.67
2019-04-14T06:04:30.936Z,4.00
2019-04-14T06:06:57.798Z,4.27
2019-04-14T06:09:24.390Z,4.53
2019-04-14T06:11:51.105Z,4.30
2019-04-14T06:14:17.683Z,4.20
2019-04-14T06:16:46.639Z,4.03
2019-04-14T06:19:13.302Z,4.50
2019-04-14T06:21:39.920Z,4.17
2019-04-14T06:24:08.001Z,4.03
2019-04-14T06:26:34.661Z,4.80
2019-04-14T06:29:01.358Z,4.60
2019-04-14T06:31:29.930Z,4.93
2019-04-14T06:33:58.494Z,4.60
2019-04-14T06:36:27.186Z,4.30
2019-04-14T06:38:55.803Z,4.37
2019-04-14T06:41:22.386Z,4.37
2019-04-14T06:43:49.426Z,4.50
2019-04-14T06:46:16.174Z,3.97
2019-04-14T06:48:42.737Z,4.13
2019-04-14T06:51:09.311Z,4.37
2019-04-14T06:53:36.223Z,4.50
2019-04-14T06:56:03.275Z,4.40
2019-04-14T06:58:29.973Z,4.60
2019-04-14T07:00:56.656Z,4.40
2019-04-14T07:03:23.362Z,3.17
2019-04-14T07:05:50.056Z,4.80
2019-04-14T07:08:16.677Z,4.33
2019-04-14T07:10:43.676Z,4.07
2019-04-14T07:13:13.803Z,4.27
2019-04-14T07:15:39.005Z,3.50
2019-04-14T07:18:05.942Z,3.73
2019-04-14T07:20:32.688Z,3.73
2019-04-14T07:22:59.370Z,3.63
2019-04-14T07:25:26.067Z,3.87
2019-04-14T07:27:52.761Z,4.00
2019-04-14T07:30:21.394Z,3.73
2019-04-14T07:32:50.273Z,3.80
2019-04-14T07:35:16.878Z,3.90
2019-04-14T07:37:45.471Z,4.43
2019-04-14T07:40:14.232Z,3.47
2019-04-14T07:42:42.781Z,4.53
2019-04-14T07:45:12.313Z,4.00
2019-04-14T07:47:41.126Z,4.53
2019-04-14T07:50:14.947Z,4.77
2019-04-14T07:52:40.703Z,4.30
2019-04-14T07:55:09.663Z,4.60
2019-04-14T07:57:38.249Z,4.60
2019-04-14T08:00:08.743Z,3.73
2019-04-14T08:02:37.430Z,4.07
2019-04-14T08:05:06.978Z,4.23
2019-04-14T08:07:33.651Z,4.50
2019-04-14T08:10:00.483Z,4.37
2019-04-14T08:12:27.387Z,3.80
2019-04-14T08:14:54.163Z,4.10
2019-04-14T08:17:20.769Z,3.43
2019-04-14T08:19:47.400Z,3.63
2019-04-14T08:22:14.359Z,3.40
2019-04-14T08:24:41.159Z,4.07
2019-04-14T08:27:07.885Z,3.40
2019-04-14T08:29:34.708Z,3.27
2019-04-14T08:32:01.553Z,3.50
2019-04-14T08:34:29.266Z,2.77
2019-04-14T08:36:56.055Z,3.30
2019-04-14T08:39:22.769Z,3.13
2019-04-14T08:41:51.435Z,2.90
2019-04-14T08:44:19.968Z,2.67
2019-04-14T08:46:48.474Z,2.87
2019-04-14T08:49:17.214Z,2.90
2019-04-14T08:51:45.745Z,3.00
2019-04-14T08:54:14.349Z,2.53
2019-04-14T08:56:42.881Z,2.10
2019-04-14T08:59:11.718Z,2.10
2019-04-14T09:01:38.855Z,2.33
2019-04-14T09:04:07.555Z,2.30
2019-04-14T09:06:36.215Z,2.47
2019-04-14T09:09:07.422Z,2.30
2019-04-14T09:11:34.327Z,2.87
2019-04-14T09:14:01.353Z,2.83
2019-04-14T09:16:27.943Z,3.20
2019-04-14T09:19:06.900Z,3.13
2019-04-14T09:21:23.159Z,2.57
2019-04-14T09:23:51.200Z,2.30
2019-04-14T09:26:17.848Z,2.70
2019-04-14T09:28:44.472Z,2.60
2019-04-14T09:31:11.163Z,3.13
2019-04-14T09:33:37.902Z,3.00
2019-04-14T09:36:04.586Z,2.70
2019-04-14T09:38:31.193Z,3.10
2019-04-14T09:40:57.781Z,3.10
2019-04-14T09:43:24.410Z,3.40
2019-04-14T09:45:51.005Z,3.23
2019-04-14T09:48:17.569Z,3.13
2019-04-14T09:50:44.364Z,3.33
2019-04-14T09:53:11.181Z,2.90
2019-04-14T09:55:38.962Z,2.40
2019-04-14T09:58:05.725Z,2.90
2019-04-14T10:00:34.385Z,3.10
2019-04-14T10:03:01.140Z,2.97
2019-04-14T10:05:27.921Z,2.90
2019-04-14T10:07:54.741Z,3.33
2019-04-14T10:10:21.646Z,2.57
2019-04-14T10:12:48.417Z,2.90
2019-04-14T10:15:15.098Z,2.90
2019-04-14T10:17:41.769Z,3.30
2019-04-14T10:20:08.606Z,3.00
2019-04-14T10:22:35.331Z,2.63
2019-04-14T10:25:03.919Z,2.80
2019-04-14T10:27:30.684Z,2.93
2019-04-14T10:29:57.718Z,3.17
2019-04-14T10:32:24.316Z,2.90
2019-04-14T10:34:51.054Z,3.27
2019-04-14T10:37:17.753Z,3.00
2019-04-14T10:39:44.480Z,3.10
2019-04-14T10:42:11.099Z,3.27
2019-04-14T10:44:41.128Z,2.93
2019-04-14T10:47:08.377Z,3.67
2019-04-14T10:49:35.420Z,3.00
2019-04-14T10:52:02.298Z,3.40
2019-04-14T10:54:29.340Z,2.60
2019-04-14T10:56:55.923Z,3.07
2019-04-14T10:59:22.657Z,2.50
2019-04-14T11:01:49.553Z,3.03
2019-04-14T11:04:16.388Z,2.87
2019-04-14T11:06:45.882Z,3.57
2019-04-14T11:09:14.633Z,3.53
2019-04-14T11:11:41.647Z,3.50
2019-04-14T11:14:08.314Z,3.93
2019-04-14T11:16:35.056Z,3.67
2019-04-14T11:19:01.978Z,3.40
2019-04-14T11:21:28.692Z,3.00
2019-04-14T11:23:55.384Z,2.73
2019-04-14T11:26:22.305Z,3.13
2019-04-14T11:28:49.125Z,2.77
2019-04-14T11:31:17.718Z,3.37
2019-04-14T11:33:46.241Z,2.90
2019-04-14T11:36:14.842Z,5.43
2019-04-14T11:38:43.550Z,3.10
2019-04-14T11:41:12.313Z,3.17
2019-04-14T11:43:38.946Z,3.10
2019-04-14T11:46:09.714Z,2.70
2019-04-14T11:48:36.584Z,2.87
2019-04-14T11:51:03.562Z,2.87
2019-04-14T11:53:30.517Z,3.17
2019-04-14T11:55:57.245Z,2.53
2019-04-14T11:58:24.050Z,3.10
2019-04-14T12:00:52.832Z,2.73
2019-04-14T12:03:19.547Z,3.10
2019-04-14T12:05:48.405Z,2.73
2019-04-14T12:08:17.088Z,2.97
2019-04-14T12:10:43.878Z,2.90
2019-04-14T12:13:12.450Z,2.67
2019-04-14T12:15:39.114Z,2.70
2019-04-14T12:18:06.690Z,2.80
2019-04-14T12:20:33.323Z,2.63
2019-04-14T12:23:00.145Z,3.27
2019-04-14T12:25:26.727Z,2.83
2019-04-14T12:27:53.566Z,3.10
2019-04-14T12:30:20.568Z,2.70
2019-04-14T12:32:47.260Z,2.33
2019-04-14T12:35:14.776Z,3.20
2019-04-14T12:37:41.544Z,2.67
2019-04-14T12:40:08.697Z,3.17
2019-04-14T12:42:37.382Z,2.90
2019-04-14T12:45:07.880Z,2.87
2019-04-14T12:47:40.111Z,2.90
2019-04-14T12:50:08.920Z,3.10
2019-04-14T12:52:35.674Z,2.83
2019-04-14T12:55:05.263Z,2.13
2019-04-14T12:57:33.750Z,2.80
2019-04-14T13:00:00.457Z,2.50
2019-04-14T13:02:29.048Z,2.97
2019-04-14T13:04:55.710Z,2.90
2019-04-14T13:07:22.441Z,3.00
2019-04-14T13:09:49.144Z,2.80
2019-04-14T13:12:15.984Z,2.80
2019-04-14T13:14:42.797Z,3.30
2019-04-14T13:17:09.540Z,3.63
2019-04-14T13:19:36.439Z,3.40
2019-04-14T13:22:03.601Z,3.67
2019-04-14T13:24:30.385Z,3.50
2019-04-14T13:26:57.103Z,3.40
2019-04-14T13:29:24.050Z,3.63
2019-04-14T13:31:50.822Z,3.57
2019-04-14T13:34:17.810Z,3.77
2019-04-14T13:36:44.713Z,3.77
2019-04-14T13:39:12.790Z,3.60
2019-04-14T13:41:39.922Z,3.50
2019-04-14T13:44:06.974Z,4.07
2019-04-14T13:46:33.741Z,3.50
2019-04-14T13:49:00.550Z,4.00
2019-04-14T13:51:27.427Z,4.40
2019-04-14T13:53:54.138Z,3.23
2019-04-14T13:56:21.024Z,3.70
2019-04-14T13:58:47.710Z,3.20
2019-04-14T14:01:14.489Z,3.30
2019-04-14T14:03:41.125Z,3.37
2019-04-14T14:06:09.110Z,3.30
2019-04-14T14:08:36.038Z,2.47
2019-04-14T14:11:04.910Z,3.17
2019-04-14T14:13:33.457Z,3.33
2019-04-14T14:16:02.444Z,3.60
2019-04-14T14:18:31.046Z,3.20
2019-04-14T14:20:59.773Z,3.27
2019-04-14T14:23:28.355Z,2.87
2019-04-14T14:25:56.868Z,3.03
2019-04-14T14:28:23.427Z,3.47
2019-04-14T14:30:50.060Z,3.50
2019-04-14T14:33:18.273Z,3.00
2019-04-14T14:35:45.149Z,2.90
2019-04-14T14:38:12.073Z,2.70
2019-04-14T14:40:38.831Z,3.17
2019-04-14T14:43:05.596Z,2.90
2019-04-14T14:45:34.212Z,2.73
2019-04-14T14:48:02.893Z,3.20
2019-04-14T14:50:31.480Z,2.90
2019-04-14T14:52:58.086Z,3.20
2019-04-14T14:55:24.659Z,3.07
2019-04-14T14:57:51.339Z,3.20
2019-04-14T15:00:20.162Z,3.30
2019-04-14T15:02:46.808Z,3.03
2019-04-14T15:05:13.471Z,3.10
2019-04-14T15:07:40.136Z,3.00
2019-04-14T15:10:07.029Z,3.70
2019-04-14T15:12:33.670Z,3.10
2019-04-14T15:15:00.427Z,3.23
2019-04-14T15:17:27.257Z,2.60
2019-04-14T15:19:57.131Z,3.00
2019-04-14T15:22:23.974Z,3.10
2019-04-14T15:24:50.529Z,3.07
2019-04-14T15:27:17.669Z,3.37
2019-04-14T15:29:44.241Z,3.00
2019-04-14T15:32:10.978Z,2.70
2019-04-14T15:34:37.778Z,3.40
2019-04-14T15:37:04.662Z,3.57
2019-04-14T15:39:31.257Z,3.40
2019-04-14T15:41:58.102Z,2.70
2019-04-14T15:44:24.699Z,3.17
2019-04-14T15:46:51.430Z,3.47
2019-04-14T15:49:18.216Z,3.23
2019-04-14T15:51:44.807Z,2.77
2019-04-14T15:54:11.364Z,3.47
2019-04-14T15:56:39.998Z,3.53
2019-04-14T15:59:08.760Z,3.00
2019-04-14T16:01:37.499Z,2.80
2019-04-14T16:04:06.434Z,3.40
2019-04-14T16:06:35.055Z,3.43
2019-04-14T16:09:03.588Z,3.30
2019-04-14T16:11:32.071Z,4.07
2019-04-14T16:14:01.035Z,3.23
2019-04-14T16:16:29.680Z,3.40
2019-04-14T16:18:58.263Z,3.73
2019-04-14T16:21:26.318Z,3.40
2019-04-14T16:23:52.929Z,3.63
2019-04-14T16:26:19.783Z,3.63
2019-04-14T16:28:48.342Z,3.47
2019-04-14T16:31:16.944Z,4.00
2019-04-14T16:33:45.470Z,3.80
2019-04-14T16:36:12.377Z,4.07
2019-04-14T16:39:36.905Z,3.43
2019-04-14T16:42:05.226Z,3.80
2019-04-14T16:44:31.923Z,3.60
2019-04-14T16:46:58.616Z,3.40
2019-04-14T16:49:25.324Z,3.10
2019-04-14T16:51:54.377Z,3.43
2019-04-14T16:54:22.906Z,3.13
2019-04-14T16:56:51.448Z,3.70
2019-04-14T16:59:18.003Z,3.53
2019-04-14T17:01:46.055Z,4.43
2019-04-14T17:04:15.629Z,3.60
2019-04-14T17:06:42.339Z,3.40
2019-04-14T17:09:08.978Z,4.70
2019-04-14T17:11:39.231Z,3.60
2019-04-14T17:14:07.858Z,4.17
2019-04-14T17:16:37.546Z,3.60
2019-04-14T17:19:06.197Z,3.47
2019-04-14T17:21:37.933Z,3.53
2019-04-14T17:24:16.261Z,3.80
2019-04-14T17:26:37.192Z,4.17
2019-04-14T17:29:05.780Z,4.27
2019-04-14T17:31:34.556Z,4.50
2019-04-14T17:34:03.051Z,4.03
2019-04-14T17:36:31.768Z,4.97
2019-04-14T17:39:01.995Z,5.70
2019-04-14T17:41:32.504Z,6.07
2019-04-14T17:44:01.223Z,6.17
2019-04-14T17:46:29.999Z,5.57
2019-04-14T17:48:56.969Z,5.43
2019-04-14T17:51:25.596Z,5.60
2019-04-14T17:53:54.305Z,5.37
2019-04-14T17:57:18.796Z,5.27
2019-04-14T17:59:47.352Z,5.60
2019-04-14T18:02:16.001Z,5.13
2019-04-14T18:04:44.784Z,5.10
2019-04-14T18:07:13.421Z,4.80
2019-04-14T18:09:42.086Z,4.90
2019-04-14T18:12:12.577Z,5.00
2019-04-14T18:14:41.110Z,4.83
2019-04-14T18:17:09.814Z,5.00
2019-04-14T18:19:38.513Z,4.63
2019-04-14T18:22:05.307Z,4.53
2019-04-14T18:24:42.060Z,5.47
2019-04-14T18:27:02.106Z,5.87
2019-04-14T18:29:30.852Z,5.67
2019-04-14T18:31:59.497Z,6.37
2019-04-14T18:34:28.213Z,6.37
2019-04-14T18:36:56.828Z,6.10
2019-04-14T18:39:25.333Z,6.03
2019-04-14T18:41:53.872Z,5.73
2019-04-14T18:44:22.626Z,5.80
2019-04-14T18:46:51.179Z,6.17
2019-04-14T18:49:20.324Z,5.57
2019-04-14T18:51:51.124Z,6.23
2019-04-14T18:54:20.025Z,7.43
2019-04-14T18:56:46.690Z,7.17
2019-04-14T18:59:15.558Z,8.00
2019-04-14T19:01:44.147Z,7.13
2019-04-14T19:04:10.733Z,8.17
2019-04-14T19:06:37.419Z,9.17
2019-04-14T19:09:06.716Z,9.27
2019-04-14T19:11:37.131Z,9.43
2019-04-14T19:14:05.691Z,9.60
2019-04-14T19:16:39.593Z,9.27
2019-04-14T19:19:04.581Z,9.97
2019-04-14T19:21:32.174Z,10.67
2019-04-14T19:23:58.952Z,10.83
2019-04-14T19:26:25.710Z,10.97
2019-04-14T19:28:52.314Z,12.27
2019-04-14T19:31:19.097Z,11.73
2019-04-14T19:33:47.046Z,11.70
2019-04-14T19:36:13.863Z,11.60
2019-04-14T19:38:42.340Z,11.73
2019-04-14T19:41:09.571Z,12.10
2019-04-14T19:43:36.525Z,12.30
2019-04-14T19:46:03.635Z,12.30
2019-04-14T19:48:30.982Z,12.33
2019-04-14T19:50:58.047Z,11.67
2019-04-14T19:53:25.247Z,11.80
2019-04-14T19:55:52.472Z,12.30
2019-04-14T19:58:19.509Z,13.50
2019-04-14T20:00:46.924Z,13.43
2019-04-14T20:03:13.690Z,13.80
2019-04-14T20:05:45.280Z,13.60
2019-04-14T20:08:15.069Z,14.60
2019-04-14T20:10:42.849Z,14.17
2019-04-14T20:13:10.060Z,15.17
2019-04-14T20:15:39.181Z,15.13
2019-04-14T20:18:08.027Z,16.37
2019-04-14T20:20:36.683Z,15.63
2019-04-14T20:23:05.892Z,15.30
2019-04-14T20:25:34.716Z,17.97
2019-04-14T20:28:03.519Z,19.43
2019-04-14T20:30:32.886Z,18.00
2019-04-14T20:32:59.723Z,15.40
2019-04-14T20:35:26.770Z,15.90
2019-04-14T20:37:53.405Z,17.07
2019-04-14T20:40:20.118Z,15.50
2019-04-14T20:42:46.809Z,16.40
2019-04-14T20:45:14.074Z,16.33
2019-04-14T20:47:40.749Z,16.77
2019-04-14T20:50:08.073Z,16.53
2019-04-14T20:52:36.614Z,16.57
2019-04-14T20:55:05.831Z,15.87
2019-04-14T20:57:32.641Z,15.67
2019-04-14T20:59:59.577Z,15.10
2019-04-14T21:02:28.307Z,15.30
2019-04-14T21:04:54.927Z,13.90
2019-04-14T21:07:23.614Z,14.90
2019-04-14T21:09:52.132Z,15.97
2019-04-14T21:12:20.804Z,13.83
2019-04-14T21:14:49.454Z,13.70
2019-04-14T21:17:17.936Z,13.20
2019-04-14T21:19:46.631Z,12.97
2019-04-14T21:22:16.683Z,11.87
2019-04-14T21:24:45.263Z,11.23
2019-04-14T21:27:14.299Z,10.60
2019-04-14T21:29:42.887Z,11.47
2019-04-14T21:32:11.546Z,13.40
2019-04-14T21:34:40.206Z,13.23
2019-04-14T21:37:08.683Z,13.20
2019-04-14T21:39:40.392Z,12.97
2019-04-14T21:42:06.979Z,12.43
2019-04-14T21:44:33.553Z,12.13
2019-04-14T21:47:00.403Z,12.10
2019-04-14T21:49:27.071Z,12.37
2019-04-14T21:51:55.788Z,13.03
2019-04-14T21:54:22.551Z,11.57
2019-04-14T21:56:51.427Z,12.00
2019-04-14T21:59:19.910Z,12.40
2019-04-14T22:01:48.815Z,12.30
2019-04-14T22:04:17.716Z,11.70
2019-04-14T22:06:46.476Z,11.33
2019-04-14T22:09:15.177Z,10.10
2019-04-14T22:11:42.017Z,11.23
2019-04-14T22:14:08.659Z,11.10
2019-04-14T22:16:35.508Z,11.33
2019-04-14T22:19:02.086Z,11.87
2019-04-14T22:21:28.660Z,9.90
2019-04-14T22:24:01.644Z,9.77
2019-04-14T22:26:26.221Z,11.43
2019-04-14T22:28:52.521Z,9.47
2019-04-14T22:31:19.185Z,9.33
2019-04-14T22:33:45.967Z,10.67
2019-04-14T22:36:12.535Z,10.67
2019-04-14T22:38:40.674Z,9.83
2019-04-14T22:41:07.422Z,9.43
2019-04-14T22:43:33.987Z,8.97
2019-04-14T22:46:00.602Z,9.07
2019-04-14T22:48:27.251Z,9.90
2019-04-14T22:50:53.891Z,8.40
2019-04-14T22:53:20.585Z,9.67
2019-04-14T22:55:47.186Z,9.43
2019-04-14T22:58:14.002Z,8.70
2019-04-14T23:00:42.963Z,9.10
2019-04-14T23:03:11.673Z,8.63
2019-04-14T23:05:40.313Z,8.67
2019-04-14T23:08:17.563Z,8.67
2019-04-14T23:10:46.031Z,8.13
2019-04-14T23:13:14.710Z,9.27
2019-04-14T23:15:43.422Z,8.60
2019-04-14T23:18:12.051Z,8.27
2019-04-14T23:20:41.574Z,7.83
2019-04-14T23:23:10.277Z,8.33
2019-04-14T23:25:37.147Z,8.23
2019-04-14T23:28:03.975Z,7.63
2019-04-14T23:30:30.829Z,7.33
2019-04-14T23:32:57.537Z,8.87
2019-04-14T23:35:24.372Z,8.33
2019-04-14T23:37:51.036Z,8.27
2019-04-14T23:40:17.978Z,7.57
2019-04-14T23:42:44.742Z,7.77
2019-04-14T23:45:11.692Z,6.93
2019-04-14T23:47:38.565Z,6.83
2019-04-14T23:50:07.104Z,7.70
2019-04-14T23:52:33.738Z,6.70
2019-04-14T23:55:00.303Z,7.43
2019-04-14T23:57:26.938Z,6.23
2019-04-14T23:59:53.621Z,6.30
